KPRX/PRX METAR and TAF weather

Enter ICAO airport designator
Station Type Date Time Source
KPRX METAR 2019/02/22 21:56 UTC NOAA

KPRX 222156Z AUTO 09008KT 10SM OVC005 10/09 A2995 RMK AO2 SLP159 T01000094


Station Type Date Time Source
KPRX Decoded METAR 2019/02/22 21:56 UTC NOAA

Paris / Cox Field, TX, United States (KPRX) 33-38N 095-27W
Feb 22, 2019 - 04:56 PM EST / 2019.02.22 2156 UTC
Wind: from the E (090 degrees) at 9 MPH (8 KT):0
Visibility: 10 mile(s):0
Sky conditions: overcast
Temperature: 50.0 F (10.0 C)
Dew Point: 48.9 F (9.4 C)
Relative Humidity: 96%
Pressure (altimeter): 29.95 in. Hg (1014 hPa)
ob: KPRX 222156Z AUTO 09008KT 10SM OVC005 10/09 A2995 RMK AO2 SLP159 T01000094
cycle: 22

Station Type Date Time Source
KPRX TAF UTC NOAA

Error!


Example: see airport list